createdAt,value
2018-01-18T00:00:54.577Z,98.16
2018-01-18T00:01:54.570Z,98.44
2018-01-18T00:02:54.560Z,98.25
2018-01-18T00:03:54.553Z,98.44
2018-01-18T00:04:54.547Z,98.54
2018-01-18T00:05:54.539Z,98.63
2018-01-18T00:06:54.530Z,98.35
2018-01-18T00:07:54.523Z,98.44
2018-01-18T00:08:54.515Z,98.54
2018-01-18T00:09:54.509Z,98.72
2018-01-18T00:10:54.501Z,98.44
2018-01-18T00:11:54.493Z,98.25
2018-01-18T00:12:54.485Z,98.35
2018-01-18T00:13:54.477Z,98.44
2018-01-18T00:14:54.471Z,97.87
2018-01-18T00:15:54.462Z,98.16
2018-01-18T00:16:54.455Z,98.16
2018-01-18T00:17:54.450Z,98.06
2018-01-18T00:18:54.440Z,98.16
2018-01-18T00:19:54.432Z,98.16
2018-01-18T00:20:54.425Z,97.97
2018-01-18T00:21:54.418Z,98.06
2018-01-18T00:22:54.410Z,98.16
2018-01-18T00:23:54.402Z,98.54
2018-01-18T00:24:54.397Z,98.54
2018-01-18T00:25:54.389Z,98.16
2018-01-18T00:26:54.379Z,98.25
2018-01-18T00:27:54.372Z,98.54
2018-01-18T00:28:54.364Z,98.54
2018-01-18T00:29:54.357Z,98.16
2018-01-18T00:30:54.349Z,98.06
2018-01-18T00:31:54.342Z,98.72
2018-01-18T00:32:54.334Z,98.54
2018-01-18T00:33:54.327Z,98.54
2018-01-18T00:34:54.319Z,99.10
2018-01-18T00:35:54.313Z,98.72
2018-01-18T00:36:54.304Z,99.10
2018-01-18T00:37:54.297Z,99.01
2018-01-18T00:38:54.289Z,99.20
2018-01-18T00:39:54.282Z,99.67
2018-01-18T00:40:54.274Z,99.39
2018-01-18T00:41:54.268Z,99.39
2018-01-18T00:42:54.259Z,99.10
2018-01-18T00:43:54.252Z,99.20
2018-01-18T00:44:54.245Z,98.25
2018-01-18T00:45:54.238Z,98.25
2018-01-18T00:46:54.230Z,99.10
2018-01-18T00:47:54.223Z,98.44
2018-01-18T00:48:54.214Z,99.39
2018-01-18T00:49:54.207Z,99.99
2018-01-18T00:50:54.200Z,99.99
2018-01-18T00:51:54.193Z,99.58
2018-01-18T00:52:54.186Z,99.99
2018-01-18T00:53:54.177Z,99.99
2018-01-18T00:54:54.168Z,99.99
2018-01-18T00:55:54.161Z,99.99
2018-01-18T00:56:54.155Z,99.99
2018-01-18T00:57:54.149Z,99.99
2018-01-18T00:58:54.139Z,99.77
2018-01-18T00:59:54.132Z,99.99
2018-01-18T01:00:54.125Z,99.99
2018-01-18T01:01:54.118Z,99.99
2018-01-18T01:02:54.110Z,99.99
2018-01-18T01:03:54.103Z,99.99
2018-01-18T01:04:54.097Z,99.99
2018-01-18T01:05:54.089Z,99.99
2018-01-18T01:06:54.080Z,99.99
2018-01-18T01:07:54.073Z,99.99
2018-01-18T01:08:54.066Z,99.99
2018-01-18T01:09:54.059Z,99.99
2018-01-18T01:10:54.052Z,99.99
2018-01-18T01:11:54.044Z,99.99
2018-01-18T01:12:54.037Z,99.99
2018-01-18T01:13:54.030Z,99.99
2018-01-18T01:14:54.021Z,99.99
2018-01-18T01:15:54.015Z,99.99
2018-01-18T01:16:54.007Z,99.99
2018-01-18T01:17:54.000Z,99.99
2018-01-18T01:18:53.994Z,99.99
2018-01-18T01:19:53.987Z,99.99
2018-01-18T01:20:53.977Z,99.99
2018-01-18T01:21:53.970Z,99.99
2018-01-18T01:22:53.962Z,99.99
2018-01-18T01:23:53.956Z,99.99
2018-01-18T01:24:53.948Z,99.99
2018-01-18T01:25:53.942Z,99.99
2018-01-18T01:26:53.936Z,99.99
2018-01-18T01:27:53.926Z,99.99
2018-01-18T01:28:53.919Z,99.99
2018-01-18T01:29:53.914Z,99.99
2018-01-18T01:30:53.904Z,99.99
2018-01-18T01:31:53.900Z,99.99
2018-01-18T01:32:53.891Z,99.99
2018-01-18T01:33:53.884Z,99.99
2018-01-18T01:34:53.882Z,99.99
2018-01-18T01:35:53.869Z,99.99
2018-01-18T01:36:53.861Z,99.99
2018-01-18T01:37:53.855Z,99.99
2018-01-18T01:38:53.847Z,99.99
2018-01-18T01:39:53.840Z,99.99
2018-01-18T01:40:53.834Z,99.99
2018-01-18T01:41:53.827Z,99.99
2018-01-18T01:42:55.018Z,99.99
2018-01-18T01:43:53.815Z,99.99
2018-01-18T01:44:53.804Z,99.99
2018-01-18T01:45:53.796Z,99.99
2018-01-18T01:46:53.790Z,99.99
2018-01-18T01:47:53.781Z,99.99
2018-01-18T01:48:53.774Z,99.99
2018-01-18T01:49:53.768Z,99.99
2018-01-18T01:50:53.760Z,99.99
2018-01-18T01:51:53.754Z,99.99
2018-01-18T01:52:53.746Z,99.99
2018-01-18T01:53:53.739Z,99.99
2018-01-18T01:54:53.731Z,99.99
2018-01-18T01:55:53.724Z,99.99
2018-01-18T01:56:53.717Z,99.99
2018-01-18T01:57:53.710Z,99.99
2018-01-18T01:58:53.704Z,99.99
2018-01-18T01:59:53.699Z,99.82
2018-01-18T02:00:53.689Z,99.99
2018-01-18T02:01:53.682Z,99.99
2018-01-18T02:02:53.674Z,99.99
2018-01-18T02:03:53.668Z,99.99
2018-01-18T02:04:53.660Z,99.99
2018-01-18T02:05:53.654Z,99.99
2018-01-18T02:06:53.646Z,99.99
2018-01-18T02:07:53.638Z,99.99
2018-01-18T02:08:53.679Z,99.99
2018-01-18T02:09:53.624Z,99.99
2018-01-18T02:10:53.617Z,99.99
2018-01-18T02:11:53.610Z,99.63
2018-01-18T02:12:53.604Z,99.99
2018-01-18T02:13:53.596Z,99.99
2018-01-18T02:14:53.590Z,99.99
2018-01-18T02:15:53.582Z,99.99
2018-01-18T02:16:53.575Z,99.82
2018-01-18T02:17:53.569Z,99.99
2018-01-18T02:18:53.560Z,99.99
2018-01-18T02:19:53.553Z,99.99
2018-01-18T02:20:53.548Z,99.53
2018-01-18T02:21:53.539Z,99.99
2018-01-18T02:22:53.532Z,99.82
2018-01-18T02:23:53.675Z,99.99
2018-01-18T02:24:53.518Z,99.99
2018-01-18T02:25:53.510Z,99.99
2018-01-18T02:26:53.503Z,99.99
2018-01-18T02:27:53.496Z,99.99
2018-01-18T02:28:53.489Z,99.99
2018-01-18T02:29:53.483Z,99.63
2018-01-18T02:30:53.474Z,99.91
2018-01-18T02:31:53.469Z,99.99
2018-01-18T02:32:53.461Z,99.99
2018-01-18T02:33:53.454Z,99.99
2018-01-18T02:34:53.445Z,99.99
2018-01-18T02:35:53.440Z,99.82
2018-01-18T02:36:53.432Z,99.99
2018-01-18T02:37:53.426Z,99.99
2018-01-18T02:38:53.419Z,99.99
2018-01-18T02:39:53.410Z,99.53
2018-01-18T02:40:53.408Z,99.99
2018-01-18T02:41:53.398Z,99.99
2018-01-18T02:42:53.390Z,99.99
2018-01-18T02:43:53.383Z,99.99
2018-01-18T02:44:53.376Z,99.99
2018-01-18T02:45:53.371Z,99.99
2018-01-18T02:46:53.362Z,99.99
2018-01-18T02:47:53.355Z,99.99
2018-01-18T02:48:53.349Z,99.63
2018-01-18T02:49:53.342Z,99.82
2018-01-18T02:50:53.334Z,99.99
2018-01-18T02:51:53.327Z,99.99
2018-01-18T02:52:53.321Z,99.99
2018-01-18T02:53:53.315Z,99.99
2018-01-18T02:54:53.306Z,99.44
2018-01-18T02:55:53.300Z,99.99
2018-01-18T02:56:53.293Z,99.63
2018-01-18T02:57:53.286Z,99.91
2018-01-18T02:58:53.278Z,99.63
2018-01-18T02:59:53.273Z,99.34
2018-01-18T03:00:53.265Z,99.34
2018-01-18T03:01:53.258Z,99.15
2018-01-18T03:02:53.251Z,98.49
2018-01-18T03:03:53.245Z,99.15
2018-01-18T03:04:53.238Z,98.96
2018-01-18T03:05:53.231Z,98.77
2018-01-18T03:06:53.223Z,98.21
2018-01-18T03:07:53.218Z,98.49
2018-01-18T03:08:53.210Z,98.68
2018-01-18T03:09:53.204Z,99.25
2018-01-18T03:10:53.196Z,99.25
2018-01-18T03:11:53.188Z,98.30
2018-01-18T03:12:53.182Z,98.49
2018-01-18T03:13:53.178Z,98.49
2018-01-18T03:14:53.171Z,98.49
2018-01-18T03:15:53.162Z,99.25
2018-01-18T03:16:53.155Z,98.39
2018-01-18T03:17:53.148Z,98.77
2018-01-18T03:18:53.140Z,97.83
2018-01-18T03:19:53.135Z,98.49
2018-01-18T03:20:53.127Z,98.02
2018-01-18T03:21:53.122Z,97.92
2018-01-18T03:22:53.113Z,97.73
2018-01-18T03:23:53.107Z,98.21
2018-01-18T03:24:53.100Z,97.83
2018-01-18T03:25:53.093Z,97.35
2018-01-18T03:26:53.086Z,97.16
2018-01-18T03:27:53.078Z,97.16
2018-01-18T03:28:53.071Z,97.26
2018-01-18T03:29:53.066Z,97.26
2018-01-18T03:30:53.058Z,96.69
2018-01-18T03:31:53.052Z,96.69
2018-01-18T03:32:53.047Z,96.69
2018-01-18T03:33:53.037Z,96.31
2018-01-18T03:34:53.031Z,96.31
2018-01-18T03:35:53.023Z,95.55
2018-01-18T03:36:53.018Z,95.36
2018-01-18T03:37:53.011Z,95.65
2018-01-18T03:38:53.005Z,95.45
2018-01-18T03:39:52.996Z,95.65
2018-01-18T03:40:52.989Z,95.07
2018-01-18T03:41:52.983Z,94.42
2018-01-18T03:42:52.975Z,95.07
2018-01-18T03:43:52.970Z,95.17
2018-01-18T03:44:52.962Z,95.65
2018-01-18T03:45:52.957Z,94.79
2018-01-18T03:46:52.948Z,94.89
2018-01-18T03:47:52.941Z,93.65
2018-01-18T03:48:52.936Z,94.23
2018-01-18T03:49:52.928Z,93.37
2018-01-18T03:50:52.922Z,94.13
2018-01-18T03:51:52.914Z,93.56
2018-01-18T03:52:52.907Z,94.23
2018-01-18T03:53:52.901Z,93.18
2018-01-18T03:54:52.893Z,92.99
2018-01-18T03:55:52.886Z,92.33
2018-01-18T03:56:52.880Z,92.23
2018-01-18T03:57:52.874Z,91.85
2018-01-18T03:58:52.867Z,91.47
2018-01-18T03:59:52.859Z,91.28
2018-01-18T04:00:52.852Z,90.24
2018-01-18T04:01:52.845Z,90.53
2018-01-18T04:02:52.838Z,90.62
2018-01-18T04:03:52.838Z,90.34
2018-01-18T04:04:52.824Z,90.34
2018-01-18T04:05:52.819Z,90.43
2018-01-18T04:06:52.811Z,89.77
2018-01-18T04:07:52.803Z,89.96
2018-01-18T04:08:52.801Z,90.62
2018-01-18T04:09:52.791Z,90.53
2018-01-18T04:10:52.783Z,90.15
2018-01-18T04:11:52.777Z,89.58
2018-01-18T04:12:52.770Z,89.29
2018-01-18T04:13:52.764Z,89.86
2018-01-18T04:14:52.756Z,89.58
2018-01-18T04:15:52.749Z,89.67
2018-01-18T04:16:52.742Z,89.67
2018-01-18T04:17:52.736Z,89.01
2018-01-18T04:18:52.728Z,89.20
2018-01-18T04:19:52.720Z,89.48
2018-01-18T04:20:52.714Z,88.63
2018-01-18T04:21:52.708Z,88.68
2018-01-18T04:22:52.700Z,88.73
2018-01-18T04:23:52.694Z,87.97
2018-01-18T04:24:52.686Z,88.59
2018-01-18T04:25:52.680Z,87.83
2018-01-18T04:26:52.673Z,87.54
2018-01-18T04:27:52.665Z,87.45
2018-01-18T04:28:52.659Z,86.60
2018-01-18T04:29:52.652Z,86.79
2018-01-18T04:30:52.644Z,86.12
2018-01-18T04:31:52.638Z,86.03
2018-01-18T04:32:52.631Z,86.03
2018-01-18T04:33:52.624Z,85.36
2018-01-18T04:34:52.616Z,85.17
2018-01-18T04:35:52.611Z,84.70
2018-01-18T04:36:52.603Z,84.61
2018-01-18T04:37:52.595Z,83.94
2018-01-18T04:38:52.588Z,84.04
2018-01-18T04:39:52.581Z,83.75
2018-01-18T04:40:52.574Z,83.85
2018-01-18T04:41:52.568Z,83.47
2018-01-18T04:42:52.560Z,82.90
2018-01-18T04:43:52.552Z,82.43
2018-01-18T04:44:52.549Z,82.52
2018-01-18T04:45:52.539Z,82.71
2018-01-18T04:46:52.530Z,82.33
2018-01-18T04:47:52.524Z,82.24
2018-01-18T04:48:52.519Z,82.62
2018-01-18T04:49:52.509Z,81.67
2018-01-18T04:50:52.501Z,82.24
2018-01-18T04:51:52.496Z,81.86
2018-01-18T04:52:52.488Z,81.86
2018-01-18T04:53:52.480Z,81.86
2018-01-18T04:54:52.472Z,81.86
2018-01-18T04:55:52.465Z,82.05
2018-01-18T04:56:52.459Z,81.48
2018-01-18T04:57:52.451Z,81.86
2018-01-18T04:58:52.443Z,81.01
2018-01-18T04:59:52.436Z,81.86
2018-01-18T05:00:52.430Z,81.29
2018-01-18T05:01:52.424Z,81.86
2018-01-18T05:02:52.413Z,81.86
2018-01-18T05:03:52.405Z,81.86
2018-01-18T05:04:52.416Z,81.95
2018-01-18T05:05:52.393Z,81.86
2018-01-18T05:06:52.387Z,81.44
2018-01-18T05:07:52.376Z,81.86
2018-01-18T05:08:52.374Z,81.76
2018-01-18T05:09:52.362Z,81.76
2018-01-18T05:10:52.353Z,81.20
2018-01-18T05:11:52.346Z,81.01
2018-01-18T05:12:52.339Z,81.95
2018-01-18T05:13:52.334Z,81.15
2018-01-18T05:14:52.324Z,81.15
2018-01-18T05:15:52.316Z,81.34
2018-01-18T05:16:52.310Z,81.10
2018-01-18T05:17:52.301Z,81.10
2018-01-18T05:18:52.293Z,81.10
2018-01-18T05:19:52.285Z,80.49
2018-01-18T05:20:52.278Z,80.68
2018-01-18T05:21:52.270Z,80.72
2018-01-18T05:22:52.262Z,80.87
2018-01-18T05:23:52.257Z,80.49
2018-01-18T05:24:52.248Z,80.30
2018-01-18T05:25:52.241Z,80.63
2018-01-18T05:26:52.234Z,80.68
2018-01-18T05:27:52.224Z,80.21
2018-01-18T05:28:52.218Z,80.34
2018-01-18T05:29:52.211Z,80.49
2018-01-18T05:30:52.202Z,80.49
2018-01-18T05:31:52.195Z,80.58
2018-01-18T05:32:52.186Z,80.30
2018-01-18T05:33:52.181Z,80.40
2018-01-18T05:34:52.171Z,80.21
2018-01-18T05:35:52.163Z,80.40
2018-01-18T05:36:52.160Z,80.34
2018-01-18T05:37:52.151Z,80.40
2018-01-18T05:38:52.142Z,79.74
2018-01-18T05:39:52.133Z,79.74
2018-01-18T05:40:52.124Z,79.74
2018-01-18T05:41:52.117Z,79.96
2018-01-18T05:42:52.109Z,79.93
2018-01-18T05:43:52.101Z,79.83
2018-01-18T05:44:52.095Z,79.64
2018-01-18T05:45:52.086Z,80.02
2018-01-18T05:46:52.079Z,79.64
2018-01-18T05:47:52.072Z,79.83
2018-01-18T05:48:52.064Z,79.87
2018-01-18T05:49:52.057Z,79.83
2018-01-18T05:50:52.047Z,79.58
2018-01-18T05:51:52.039Z,80.06
2018-01-18T05:52:52.032Z,79.58
2018-01-18T05:53:52.024Z,80.34
2018-01-18T05:54:52.016Z,80.15
2018-01-18T05:55:52.008Z,80.25
2018-01-18T05:56:52.001Z,80.15
2018-01-18T05:57:51.993Z,79.58
2018-01-18T05:58:51.984Z,79.96
2018-01-18T05:59:51.978Z,79.58
2018-01-18T06:00:51.970Z,79.96
2018-01-18T06:01:51.963Z,80.06
2018-01-18T06:02:51.955Z,79.87
2018-01-18T06:03:51.946Z,80.06
2018-01-18T06:04:51.940Z,79.87
2018-01-18T06:05:51.931Z,79.68
2018-01-18T06:06:51.923Z,79.87
2018-01-18T06:07:51.915Z,80.06
2018-01-18T06:08:51.907Z,79.96
2018-01-18T06:09:51.900Z,80.15
2018-01-18T06:10:51.891Z,79.68
2018-01-18T06:11:51.882Z,79.68
2018-01-18T06:12:51.876Z,79.49
2018-01-18T06:13:51.869Z,79.58
2018-01-18T06:14:51.861Z,79.87
2018-01-18T06:15:51.856Z,79.87
2018-01-18T06:16:51.845Z,79.87
2018-01-18T06:17:51.837Z,79.49
2018-01-18T06:18:51.831Z,79.49
2018-01-18T06:19:51.825Z,80.06
2018-01-18T06:20:51.815Z,79.68
2018-01-18T06:21:51.807Z,79.21
2018-01-18T06:22:51.800Z,79.21
2018-01-18T06:23:51.797Z,79.58
2018-01-18T06:24:51.784Z,79.30
2018-01-18T06:25:51.775Z,79.49
2018-01-18T06:26:51.774Z,79.58
2018-01-18T06:27:51.760Z,79.30
2018-01-18T06:28:51.753Z,79.49
2018-01-18T06:29:51.743Z,78.92
2018-01-18T06:30:51.736Z,79.30
2018-01-18T06:31:51.733Z,79.02
2018-01-18T06:32:51.721Z,78.96
2018-01-18T06:33:51.714Z,79.15
2018-01-18T06:34:51.706Z,79.25
2018-01-18T06:35:51.698Z,79.06
2018-01-18T06:36:51.692Z,79.06
2018-01-18T06:37:51.684Z,78.87
2018-01-18T06:38:51.676Z,78.67
2018-01-18T06:39:51.669Z,78.77
2018-01-18T06:40:51.661Z,78.30
2018-01-18T06:41:51.656Z,78.49
2018-01-18T06:42:51.646Z,78.67
2018-01-18T06:43:51.638Z,78.87
2018-01-18T06:44:51.631Z,78.67
2018-01-18T06:45:51.623Z,78.30
2018-01-18T06:46:51.615Z,78.49
2018-01-18T06:47:51.610Z,78.49
2018-01-18T06:48:51.600Z,78.77
2018-01-18T06:49:51.594Z,78.58
2018-01-18T06:50:51.585Z,78.15
2018-01-18T06:51:51.578Z,78.05
2018-01-18T06:52:51.571Z,77.86
2018-01-18T06:53:51.568Z,78.43
2018-01-18T06:54:51.559Z,78.62
2018-01-18T06:55:51.550Z,78.72
2018-01-18T06:56:51.543Z,79.14
2018-01-18T06:57:51.536Z,78.95
2018-01-18T06:58:51.528Z,78.95
2018-01-18T06:59:51.521Z,79.42
2018-01-18T07:00:51.515Z,79.04
2018-01-18T07:01:51.507Z,79.33
2018-01-18T07:02:51.500Z,79.52
2018-01-18T07:03:51.493Z,79.52
2018-01-18T07:04:51.487Z,79.90
2018-01-18T07:05:51.480Z,80.08
2018-01-18T07:06:51.474Z,80.08
2018-01-18T07:07:51.466Z,79.80
2018-01-18T07:08:51.458Z,79.80
2018-01-18T07:09:51.452Z,79.90
2018-01-18T07:10:51.444Z,80.08
2018-01-18T07:11:51.439Z,80.18
2018-01-18T07:12:51.432Z,79.90
2018-01-18T07:13:51.425Z,79.33
2018-01-18T07:14:51.418Z,79.61
2018-01-18T07:15:51.412Z,79.33
2018-01-18T07:16:51.408Z,79.14
2018-01-18T07:17:51.397Z,79.42
2018-01-18T07:18:51.391Z,79.14
2018-01-18T07:19:51.385Z,79.65
2018-01-18T07:20:51.382Z,79.17
2018-01-18T07:21:51.372Z,79.36
2018-01-18T07:22:51.365Z,78.99
2018-01-18T07:23:51.357Z,79.17
2018-01-18T07:24:51.353Z,79.55
2018-01-18T07:25:51.345Z,79.27
2018-01-18T07:26:51.338Z,80.03
2018-01-18T07:27:51.333Z,80.03
2018-01-18T07:28:51.326Z,79.84
2018-01-18T07:29:51.320Z,79.84
2018-01-18T07:30:51.312Z,80.13
2018-01-18T07:31:51.307Z,79.84
2018-01-18T07:32:51.301Z,80.03
2018-01-18T07:33:51.294Z,80.13
2018-01-18T07:34:51.288Z,80.51
2018-01-18T07:35:51.281Z,81.36
2018-01-18T07:36:51.278Z,81.36
2018-01-18T07:37:51.269Z,81.59
2018-01-18T07:38:51.262Z,82.03
2018-01-18T07:39:51.257Z,81.93
2018-01-18T07:40:51.250Z,82.16
2018-01-18T07:41:51.244Z,82.16
2018-01-18T07:42:51.240Z,82.54
2018-01-18T07:43:51.235Z,82.54
2018-01-18T07:44:51.226Z,81.30
2018-01-18T07:45:51.220Z,80.16
2018-01-18T07:46:51.212Z,79.69
2018-01-18T07:47:51.206Z,79.22
2018-01-18T07:48:51.204Z,78.83
2018-01-18T07:49:51.197Z,78.36
2018-01-18T07:50:51.188Z,79.22
2018-01-18T07:51:51.186Z,79.50
2018-01-18T07:52:51.177Z,79.41
2018-01-18T07:53:51.174Z,79.41
2018-01-18T07:54:51.165Z,79.03
2018-01-18T07:55:51.159Z,79.12
2018-01-18T07:56:51.155Z,79.50
2018-01-18T07:57:51.148Z,80.74
2018-01-18T07:58:51.141Z,81.44
2018-01-18T07:59:51.136Z,82.68
2018-01-18T08:00:51.131Z,83.68
2018-01-18T08:01:51.125Z,85.24
2018-01-18T08:02:51.118Z,84.86
2018-01-18T08:03:51.114Z,86.00
2018-01-18T08:04:51.107Z,87.34
2018-01-18T08:05:51.101Z,88.19
2018-01-18T08:06:51.093Z,88.67
2018-01-18T08:07:51.088Z,88.76
2018-01-18T08:08:51.083Z,89.61
2018-01-18T08:09:51.078Z,88.95
2018-01-18T08:10:51.073Z,90.33
2018-01-18T08:11:51.067Z,90.47
2018-01-18T08:12:51.062Z,89.14
2018-01-18T08:13:51.057Z,89.52
2018-01-18T08:14:51.049Z,90.99
2018-01-18T08:15:51.044Z,90.99
2018-01-18T08:16:51.039Z,90.89
2018-01-18T08:17:51.035Z,91.66
2018-01-18T08:18:51.029Z,90.89
2018-01-18T08:19:51.026Z,91.66
2018-01-18T08:20:51.018Z,92.61
2018-01-18T08:21:51.012Z,92.41
2018-01-18T08:22:51.007Z,93.75
2018-01-18T08:23:51.000Z,93.18
2018-01-18T08:24:50.996Z,93.55
2018-01-18T08:25:50.991Z,94.32
2018-01-18T08:26:50.986Z,94.89
2018-01-18T08:27:50.979Z,95.17
2018-01-18T08:28:50.974Z,96.41
2018-01-18T08:29:50.970Z,96.12
2018-01-18T08:30:50.964Z,96.65
2018-01-18T08:31:50.961Z,96.41
2018-01-18T08:32:50.953Z,97.93
2018-01-18T08:33:50.948Z,96.50
2018-01-18T08:34:50.942Z,96.36
2018-01-18T08:35:50.937Z,96.50
2018-01-18T08:36:50.934Z,96.69
2018-01-18T08:37:50.927Z,96.69
2018-01-18T08:38:50.922Z,96.03
2018-01-18T08:39:50.918Z,95.36
2018-01-18T08:40:50.916Z,92.89
2018-01-18T08:41:50.908Z,92.61
2018-01-18T08:42:50.902Z,90.33
2018-01-18T08:43:50.897Z,89.37
2018-01-18T08:44:50.892Z,88.04
2018-01-18T08:45:50.888Z,86.99
2018-01-18T08:46:50.887Z,86.90
2018-01-18T08:47:50.877Z,86.99
2018-01-18T08:48:50.874Z,85.86
2018-01-18T08:49:50.867Z,85.10
2018-01-18T08:50:50.862Z,85.38
2018-01-18T08:51:50.858Z,85.47
2018-01-18T08:52:50.852Z,86.71
2018-01-18T08:53:50.847Z,88.90
2018-01-18T08:54:50.842Z,89.28
2018-01-18T08:55:50.837Z,89.47
2018-01-18T08:56:50.832Z,89.09
2018-01-18T08:57:50.830Z,92.18
2018-01-18T08:58:50.823Z,91.61
2018-01-18T08:59:50.818Z,91.03
2018-01-18T09:00:50.814Z,90.14
2018-01-18T09:01:50.809Z,91.03
2018-01-18T09:02:50.827Z,93.51
2018-01-18T09:03:50.802Z,94.27
2018-01-18T09:04:50.796Z,94.65
2018-01-18T09:05:50.788Z,93.79
2018-01-18T09:06:50.783Z,95.32
2018-01-18T09:07:50.779Z,95.41
2018-01-18T09:08:50.778Z,95.22
2018-01-18T09:09:50.769Z,96.46
2018-01-18T09:10:50.764Z,99.99
2018-01-18T09:11:50.759Z,98.46
2018-01-18T09:12:50.754Z,99.22
2018-01-18T09:13:50.749Z,99.22
2018-01-18T09:14:50.744Z,99.99
2018-01-18T09:15:50.741Z,99.99
2018-01-18T09:16:50.735Z,99.99
2018-01-18T09:17:50.731Z,99.99
2018-01-18T09:18:50.725Z,99.99
2018-01-18T09:19:50.721Z,99.99
2018-01-18T09:20:50.715Z,99.99
2018-01-18T09:21:50.711Z,99.99
2018-01-18T09:22:50.705Z,99.99
2018-01-18T09:23:50.701Z,99.99
2018-01-18T09:24:50.705Z,99.99
2018-01-18T09:25:50.693Z,99.99
2018-01-18T09:26:50.687Z,99.99
2018-01-18T09:27:50.686Z,99.99
2018-01-18T09:28:50.679Z,99.99
2018-01-18T09:29:50.674Z,99.99
2018-01-18T09:30:50.668Z,99.99
2018-01-18T09:31:50.666Z,99.99
2018-01-18T09:32:50.659Z,99.99
2018-01-18T09:33:50.655Z,99.99
2018-01-18T09:34:50.650Z,99.99
2018-01-18T09:35:50.644Z,99.99
2018-01-18T09:36:50.639Z,99.99
2018-01-18T09:37:50.635Z,99.99
2018-01-18T09:38:50.629Z,99.99
2018-01-18T09:39:50.625Z,99.99
2018-01-18T09:40:50.621Z,99.99
2018-01-18T09:41:50.617Z,99.99
2018-01-18T09:42:50.612Z,99.99
2018-01-18T09:43:50.606Z,99.99
2018-01-18T09:44:50.602Z,99.99
2018-01-18T09:45:50.598Z,99.99
2018-01-18T09:46:50.593Z,99.99
2018-01-18T09:47:50.588Z,99.99
2018-01-18T09:48:50.584Z,99.99
2018-01-18T09:49:50.579Z,99.99
2018-01-18T09:50:50.574Z,99.99
2018-01-18T09:51:50.569Z,99.99
2018-01-18T09:52:50.569Z,99.99
2018-01-18T09:53:50.561Z,99.99
2018-01-18T09:54:50.555Z,99.99
2018-01-18T09:55:50.549Z,99.99
2018-01-18T09:56:50.546Z,99.99
2018-01-18T09:57:50.540Z,99.99
2018-01-18T09:58:50.536Z,99.99
2018-01-18T09:59:50.532Z,99.99
2018-01-18T10:00:50.533Z,99.99
2018-01-18T10:01:50.522Z,99.99
2018-01-18T10:02:50.516Z,99.99
2018-01-18T10:03:50.510Z,99.99
2018-01-18T10:04:50.505Z,99.99
2018-01-18T10:05:50.501Z,99.99
2018-01-18T10:06:50.494Z,99.99
2018-01-18T10:07:50.490Z,99.99
2018-01-18T10:08:50.487Z,99.99
2018-01-18T10:09:50.482Z,99.99
2018-01-18T10:10:50.477Z,99.99
2018-01-18T10:11:50.472Z,99.99
2018-01-18T10:12:50.465Z,99.99
2018-01-18T10:13:50.461Z,99.99
2018-01-18T10:14:50.455Z,99.99
2018-01-18T10:15:50.450Z,99.99
2018-01-18T10:16:50.447Z,99.99
2018-01-18T10:17:50.441Z,99.99
2018-01-18T10:18:50.435Z,99.99
2018-01-18T10:19:50.430Z,99.99
2018-01-18T10:20:50.434Z,99.99
2018-01-18T10:21:50.421Z,99.99
2018-01-18T10:22:50.417Z,99.99
2018-01-18T10:23:50.411Z,99.99
2018-01-18T10:24:50.405Z,99.99
2018-01-18T10:25:50.401Z,99.99
2018-01-18T10:26:50.394Z,99.99
2018-01-18T10:27:50.390Z,99.99
2018-01-18T10:28:50.385Z,99.99
2018-01-18T10:29:50.379Z,99.99
2018-01-18T10:30:50.374Z,99.99
2018-01-18T10:31:50.369Z,99.99
2018-01-18T10:32:50.363Z,99.99
2018-01-18T10:33:50.358Z,99.99
2018-01-18T10:34:50.352Z,99.99
2018-01-18T10:35:50.347Z,99.99
2018-01-18T10:36:50.341Z,99.99
2018-01-18T10:37:50.336Z,99.99
2018-01-18T10:38:50.329Z,99.99
2018-01-18T10:39:50.324Z,99.99
2018-01-18T10:40:50.319Z,99.99
2018-01-18T10:41:50.314Z,99.99
2018-01-18T10:42:50.308Z,99.99
2018-01-18T10:43:50.302Z,99.99
2018-01-18T10:44:50.296Z,99.99
2018-01-18T10:45:50.295Z,99.99
2018-01-18T10:46:50.325Z,99.99
2018-01-18T10:47:50.280Z,99.99
2018-01-18T10:48:50.273Z,99.99
2018-01-18T10:49:50.268Z,99.99
2018-01-18T10:50:50.262Z,99.99
2018-01-18T10:51:50.255Z,99.99
2018-01-18T10:52:50.249Z,99.99
2018-01-18T10:53:50.247Z,99.99
2018-01-18T10:54:50.237Z,99.99
2018-01-18T10:55:50.231Z,99.99
2018-01-18T10:56:50.226Z,99.99
2018-01-18T10:57:50.219Z,99.99
2018-01-18T10:58:50.213Z,99.99
2018-01-18T10:59:50.207Z,99.99
2018-01-18T11:00:50.203Z,99.99
2018-01-18T11:01:50.196Z,99.99
2018-01-18T11:02:50.190Z,99.99
2018-01-18T11:03:50.184Z,99.99
2018-01-18T11:04:50.178Z,99.99
2018-01-18T11:05:50.172Z,99.99
2018-01-18T11:06:50.166Z,99.99
2018-01-18T11:07:50.160Z,99.99
2018-01-18T11:08:50.160Z,99.99
2018-01-18T11:09:50.147Z,99.99
2018-01-18T11:10:50.140Z,99.99
2018-01-18T11:11:50.134Z,99.99
2018-01-18T11:12:50.130Z,99.99
2018-01-18T11:13:50.122Z,99.99
2018-01-18T11:14:50.115Z,99.99
2018-01-18T11:15:50.109Z,99.99
2018-01-18T11:16:50.103Z,99.99
2018-01-18T11:17:50.099Z,99.99
2018-01-18T11:18:50.090Z,99.99
2018-01-18T11:19:50.084Z,99.99
2018-01-18T11:20:50.077Z,99.99
2018-01-18T11:21:50.072Z,99.99
2018-01-18T11:22:50.065Z,99.99
2018-01-18T11:23:50.059Z,99.99
2018-01-18T11:24:50.053Z,99.99
2018-01-18T11:25:50.050Z,99.99
2018-01-18T11:26:50.040Z,99.99
2018-01-18T11:27:50.035Z,99.99
2018-01-18T11:28:50.028Z,99.99
2018-01-18T11:29:50.023Z,99.99
2018-01-18T11:30:50.019Z,99.99
2018-01-18T11:31:50.009Z,99.99
2018-01-18T11:32:50.004Z,99.99
2018-01-18T11:33:49.997Z,99.99
2018-01-18T11:34:49.992Z,99.99
2018-01-18T11:35:49.985Z,99.99
2018-01-18T11:36:49.979Z,99.99
2018-01-18T11:37:49.973Z,99.99
2018-01-18T11:38:49.966Z,99.99
2018-01-18T11:39:49.960Z,99.99
2018-01-18T11:40:49.956Z,99.99
2018-01-18T11:41:49.949Z,99.99
2018-01-18T11:42:49.941Z,99.99
2018-01-18T11:43:49.936Z,99.99
2018-01-18T11:44:49.930Z,99.99
2018-01-18T11:45:49.924Z,99.99
2018-01-18T11:46:49.918Z,99.99
2018-01-18T11:47:49.912Z,99.99
2018-01-18T11:48:49.906Z,99.99
2018-01-18T11:49:49.899Z,99.99
2018-01-18T11:50:49.894Z,99.99
2018-01-18T11:51:49.887Z,99.99
2018-01-18T11:52:49.921Z,99.99
2018-01-18T11:53:49.875Z,99.99
2018-01-18T11:54:49.871Z,99.99
2018-01-18T11:55:49.863Z,99.99
2018-01-18T11:56:49.857Z,99.99
2018-01-18T11:57:49.851Z,99.99
2018-01-18T11:58:49.843Z,99.99
2018-01-18T11:59:49.838Z,99.99
2018-01-18T12:00:49.832Z,99.99
2018-01-18T12:01:49.827Z,99.99
2018-01-18T12:02:49.819Z,99.99
2018-01-18T12:03:49.814Z,99.99
2018-01-18T12:04:49.809Z,99.99
2018-01-18T12:05:49.804Z,99.99
2018-01-18T12:06:49.796Z,99.99
2018-01-18T12:07:49.790Z,99.99
2018-01-18T12:08:49.783Z,99.99
2018-01-18T12:09:49.779Z,99.99
2018-01-18T12:10:49.772Z,99.99
2018-01-18T12:11:49.767Z,99.99
2018-01-18T12:12:49.759Z,99.99
2018-01-18T12:13:49.753Z,99.99
2018-01-18T12:14:49.753Z,99.99
2018-01-18T12:15:49.741Z,99.99
2018-01-18T12:16:49.734Z,99.99
2018-01-18T12:17:49.729Z,99.99
2018-01-18T12:18:49.722Z,99.99
2018-01-18T12:19:49.716Z,99.99
2018-01-18T12:20:49.710Z,99.99
2018-01-18T12:21:49.704Z,99.99
2018-01-18T12:22:49.695Z,99.99
2018-01-18T12:23:49.691Z,99.99
2018-01-18T12:24:49.685Z,99.99
2018-01-18T12:25:49.679Z,99.99
2018-01-18T12:26:49.673Z,99.99
2018-01-18T12:27:49.666Z,99.99
2018-01-18T12:28:49.660Z,99.99
2018-01-18T12:29:49.656Z,99.99
2018-01-18T12:30:49.647Z,99.99
2018-01-18T12:31:49.641Z,99.99
2018-01-18T12:32:49.635Z,99.99
2018-01-18T12:33:49.630Z,99.99
2018-01-18T12:34:49.624Z,99.99
2018-01-18T12:35:49.618Z,99.99
2018-01-18T12:36:49.610Z,99.99
2018-01-18T12:37:49.606Z,99.99
2018-01-18T12:38:49.599Z,99.99
2018-01-18T12:39:49.592Z,99.99
2018-01-18T12:40:49.586Z,99.99
2018-01-18T12:41:49.582Z,99.99
2018-01-18T12:42:49.582Z,99.99
2018-01-18T12:43:49.568Z,99.99
2018-01-18T12:44:49.563Z,99.99
2018-01-18T12:45:49.556Z,99.99
2018-01-18T12:46:49.549Z,99.99
2018-01-18T12:47:49.543Z,99.99
2018-01-18T12:48:49.537Z,99.99
2018-01-18T12:49:49.531Z,99.99
2018-01-18T12:50:49.524Z,99.99
2018-01-18T12:51:49.518Z,99.99
2018-01-18T12:52:49.512Z,99.99